createdAt,value
2022-08-03T00:02:20.446Z,101203.34
2022-08-03T00:04:50.265Z,101200.72
2022-08-03T00:07:18.905Z,101201.88
2022-08-03T00:09:47.201Z,101202.88
2022-08-03T00:12:15.743Z,101202.00
2022-08-03T00:14:44.207Z,101198.56
2022-08-03T00:17:12.509Z,101194.97
2022-08-03T00:19:40.804Z,101195.13
2022-08-03T00:22:10.479Z,101189.06
2022-08-03T00:24:38.736Z,101197.28
2022-08-03T00:27:07.022Z,101190.03
2022-08-03T00:29:57.332Z,101191.31
2022-08-03T00:32:24.156Z,101187.28
2022-08-03T00:34:58.890Z,101184.09
2022-08-03T00:37:40.589Z,101187.25
2022-08-03T00:40:13.455Z,101188.66
2022-08-03T00:42:54.628Z,101186.63
2022-08-03T00:45:25.525Z,101184.16
2022-08-03T00:47:54.934Z,101189.16
2022-08-03T00:50:25.354Z,101190.44
2022-08-03T00:52:57.372Z,101185.41
2022-08-03T00:55:26.516Z,101189.38
2022-08-03T00:57:55.174Z,101186.91
2022-08-03T01:00:26.923Z,101182.75
2022-08-03T01:02:55.732Z,101172.06
2022-08-03T01:05:24.457Z,101171.50
2022-08-03T01:08:05.967Z,101174.78
2022-08-03T01:10:42.872Z,101172.28
2022-08-03T01:14:01.290Z,101165.66
2022-08-03T01:16:35.848Z,101157.75
2022-08-03T01:19:35.843Z,101164.47
2022-08-03T01:22:24.455Z,101165.59
2022-08-03T01:25:03.964Z,101163.88
2022-08-03T01:27:49.331Z,101157.56
2022-08-03T01:30:19.669Z,101157.41
2022-08-03T01:33:01.157Z,101155.56
2022-08-03T01:35:38.404Z,101149.38
2022-08-03T01:38:12.637Z,101154.84
2022-08-03T01:40:44.507Z,101150.38
2022-08-03T01:44:27.144Z,101152.38
2022-08-03T01:46:08.783Z,101149.75
2022-08-03T01:48:39.229Z,101156.97
2022-08-03T01:51:09.126Z,101152.81
2022-08-03T01:53:38.956Z,101147.00
2022-08-03T01:56:08.660Z,101150.31
2022-08-03T01:58:38.130Z,101153.91
2022-08-03T02:01:09.852Z,101148.44
2022-08-03T02:03:59.485Z,101151.44
2022-08-03T02:06:59.778Z,101151.59
2022-08-03T02:09:23.268Z,101147.84
2022-08-03T02:11:54.252Z,101145.00
2022-08-03T02:14:23.828Z,101145.72
2022-08-03T02:16:54.245Z,101149.31
2022-08-03T02:19:24.377Z,101147.56
2022-08-03T02:21:57.408Z,101140.41
2022-08-03T02:24:30.412Z,101151.44
2022-08-03T02:27:01.292Z,101142.41
2022-08-03T02:29:39.457Z,101142.25
2022-08-03T02:32:13.666Z,101141.13
2022-08-03T02:34:46.242Z,101138.69
2022-08-03T02:37:16.082Z,101132.44
2022-08-03T02:39:46.295Z,101125.03
2022-08-03T02:42:17.748Z,101126.81
2022-08-03T02:44:52.023Z,101129.44
2022-08-03T02:47:22.989Z,101126.59
2022-08-03T02:49:54.552Z,101132.06
2022-08-03T02:52:27.723Z,101132.38
2022-08-03T02:55:00.993Z,101127.25
2022-08-03T02:57:32.600Z,101128.41
2022-08-03T03:00:02.680Z,101126.09
2022-08-03T03:02:33.234Z,101128.44
2022-08-03T03:05:55.137Z,101128.00
2022-08-03T03:07:52.947Z,101112.31
2022-08-03T03:10:23.309Z,101110.03
2022-08-03T03:12:56.311Z,101109.75
2022-08-03T03:15:26.797Z,101108.44
2022-08-03T03:17:57.397Z,101111.91
2022-08-03T03:20:29.826Z,101114.38
2022-08-03T03:23:01.397Z,101107.91
2022-08-03T03:25:32.562Z,101115.09
2022-08-03T03:28:01.648Z,101114.78
2022-08-03T03:30:30.980Z,101111.91
2022-08-03T03:33:00.837Z,101120.81
2022-08-03T03:35:29.693Z,101117.06
2022-08-03T03:37:58.653Z,101123.28
2022-08-03T03:40:27.801Z,101121.25
2022-08-03T03:42:56.176Z,101119.41
2022-08-03T03:45:25.682Z,101113.78
2022-08-03T03:47:54.166Z,101116.50
2022-08-03T03:50:25.026Z,101122.84
2022-08-03T03:52:53.377Z,101115.66
2022-08-03T03:55:21.648Z,101114.78
2022-08-03T03:57:49.918Z,101115.81
2022-08-03T04:00:20.212Z,101119.53
2022-08-03T04:02:48.986Z,101126.88
2022-08-03T04:05:35.145Z,101117.94
2022-08-03T04:08:25.627Z,101116.09
2022-08-03T04:11:06.016Z,101119.81
2022-08-03T04:13:39.724Z,101127.03
2022-08-03T04:16:13.300Z,101123.28
2022-08-03T04:18:47.807Z,101116.97
2022-08-03T04:21:20.611Z,101116.66
2022-08-03T04:23:56.067Z,101118.25
2022-08-03T04:26:26.518Z,101121.38
2022-08-03T04:28:56.559Z,101128.16
2022-08-03T04:31:27.190Z,101125.84
2022-08-03T04:33:56.491Z,101124.25
2022-08-03T04:36:28.698Z,101132.50
2022-08-03T04:39:07.761Z,101123.53
2022-08-03T04:42:07.452Z,101118.91
2022-08-03T04:44:28.172Z,101128.97
2022-08-03T04:46:59.029Z,101126.50
2022-08-03T04:49:28.236Z,101124.75
2022-08-03T04:51:56.829Z,101131.06
2022-08-03T04:54:26.533Z,101125.66
2022-08-03T04:56:54.782Z,101123.03
2022-08-03T04:59:23.063Z,101128.63
2022-08-03T05:01:51.372Z,101128.88
2022-08-03T05:04:20.561Z,101131.06
2022-08-03T05:06:55.043Z,101131.28
2022-08-03T05:09:45.118Z,101128.97
2022-08-03T05:12:14.039Z,101126.06
2022-08-03T05:14:42.481Z,101133.44
2022-08-03T05:17:10.847Z,101131.72
2022-08-03T05:19:39.153Z,101134.72
2022-08-03T05:22:07.462Z,101125.81
2022-08-03T05:24:37.112Z,101135.06
2022-08-03T05:27:05.505Z,101135.06
2022-08-03T05:29:33.774Z,101136.19
2022-08-03T05:32:08.062Z,101130.56
2022-08-03T05:34:36.655Z,101138.03
2022-08-03T05:37:05.055Z,101125.59
2022-08-03T05:39:33.350Z,101130.28
2022-08-03T05:42:03.143Z,101126.00
2022-08-03T05:44:31.772Z,101133.69
2022-08-03T05:47:00.301Z,101128.31
2022-08-03T05:49:28.655Z,101124.78
2022-08-03T05:52:00.034Z,101126.72
2022-08-03T05:54:55.856Z,101128.53
2022-08-03T05:57:27.402Z,101126.69
2022-08-03T05:59:58.528Z,101133.28
2022-08-03T06:02:28.048Z,101130.38
2022-08-03T06:04:56.494Z,101121.78
2022-08-03T06:07:24.840Z,101127.66
2022-08-03T06:10:37.354Z,101119.75
2022-08-03T06:12:43.104Z,101123.69
2022-08-03T06:15:12.048Z,101125.75
2022-08-03T06:17:50.526Z,101121.78
2022-08-03T06:20:21.057Z,101122.63
2022-08-03T06:22:50.806Z,101125.50
2022-08-03T06:25:21.147Z,101127.88
2022-08-03T06:27:51.128Z,101130.56
2022-08-03T06:30:21.381Z,101129.66
2022-08-03T06:32:52.086Z,101127.50
2022-08-03T06:35:20.956Z,101126.25
2022-08-03T06:37:51.682Z,101126.50
2022-08-03T06:40:28.514Z,101133.34
2022-08-03T06:42:58.651Z,101125.31
2022-08-03T06:45:31.670Z,101126.94
2022-08-03T06:48:05.638Z,101134.41
2022-08-03T06:50:34.614Z,101133.94
2022-08-03T06:53:03.420Z,101132.09
2022-08-03T06:55:32.274Z,101133.63
2022-08-03T06:58:03.627Z,101142.13
2022-08-03T07:00:32.649Z,101136.78
2022-08-03T07:03:00.970Z,101143.19
2022-08-03T07:05:30.508Z,101140.06
2022-08-03T07:07:59.254Z,101143.84
2022-08-03T07:10:27.712Z,101137.16
2022-08-03T07:12:56.987Z,101139.78
2022-08-03T07:15:55.403Z,101152.28
2022-08-03T07:18:15.201Z,101147.91
2022-08-03T07:20:43.598Z,101145.19
2022-08-03T07:23:18.818Z,101151.28
2022-08-03T07:25:47.885Z,101138.63
2022-08-03T07:28:16.372Z,101152.38
2022-08-03T07:30:46.009Z,101145.00
2022-08-03T07:33:15.204Z,101145.94
2022-08-03T07:35:43.716Z,101146.38
2022-08-03T07:38:12.043Z,101141.31
2022-08-03T07:40:45.746Z,101145.63
2022-08-03T07:43:14.569Z,101141.03
2022-08-03T07:45:42.895Z,101140.41
2022-08-03T07:48:12.820Z,101142.19
2022-08-03T07:50:41.907Z,101131.81
2022-08-03T07:53:10.218Z,101133.13
2022-08-03T07:55:38.614Z,101141.50
2022-08-03T07:58:12.198Z,101136.00
2022-08-03T08:00:40.893Z,101145.47
2022-08-03T08:03:10.072Z,101141.47
2022-08-03T08:05:39.811Z,101142.75
2022-08-03T08:08:08.812Z,101128.50
2022-08-03T08:10:37.633Z,101125.78
2022-08-03T08:13:06.036Z,101134.97
2022-08-03T08:15:34.367Z,101137.59
2022-08-03T08:18:03.572Z,101130.38
2022-08-03T08:20:37.998Z,101140.44
2022-08-03T08:23:20.856Z,101130.22
2022-08-03T08:25:58.482Z,101134.91
2022-08-03T08:28:32.303Z,101129.78
2022-08-03T08:31:01.795Z,101134.50
2022-08-03T08:33:48.026Z,101121.47
2022-08-03T08:36:18.696Z,101135.13
2022-08-03T08:38:48.585Z,101127.84
2022-08-03T08:41:17.679Z,101120.41
2022-08-03T08:43:46.063Z,101132.84
2022-08-03T08:46:22.980Z,101126.00
2022-08-03T08:48:54.080Z,101123.22
2022-08-03T08:51:23.707Z,101121.69
2022-08-03T08:54:13.998Z,101124.94
2022-08-03T08:56:43.287Z,101129.00
2022-08-03T08:59:11.783Z,101124.47
2022-08-03T09:01:40.108Z,101118.91
2022-08-03T09:04:09.503Z,101125.09
2022-08-03T09:06:37.834Z,101130.41
2022-08-03T09:09:08.275Z,101129.97
2022-08-03T09:11:57.652Z,101130.31
2022-08-03T09:14:36.917Z,101131.59
2022-08-03T09:17:10.115Z,101133.75
2022-08-03T09:20:09.181Z,101130.78
2022-08-03T09:22:52.274Z,101127.50
2022-08-03T09:25:25.103Z,101118.28
2022-08-03T09:27:54.896Z,101125.94
2022-08-03T09:30:33.781Z,101122.03
2022-08-03T09:33:04.106Z,101124.16
2022-08-03T09:35:54.519Z,101113.03
2022-08-03T09:38:26.263Z,101125.47
2022-08-03T09:40:59.510Z,101117.97
2022-08-03T09:43:46.685Z,101116.03
2022-08-03T09:46:15.053Z,101123.25
2022-08-03T09:48:43.320Z,101125.78
2022-08-03T09:51:33.129Z,101127.06
2022-08-03T09:54:05.557Z,101124.91
2022-08-03T09:56:45.138Z,101137.34
2022-08-03T09:59:24.302Z,101128.34
2022-08-03T10:01:54.940Z,101126.41
2022-08-03T10:04:25.698Z,101111.56
2022-08-03T10:07:07.299Z,101122.22
2022-08-03T10:09:35.877Z,101119.06
2022-08-03T10:12:12.895Z,101123.91
2022-08-03T10:14:45.378Z,101118.53
2022-08-03T10:17:14.128Z,101117.66
2022-08-03T10:19:42.515Z,101119.81
2022-08-03T10:22:15.794Z,101106.91
2022-08-03T10:24:54.143Z,101114.50
2022-08-03T10:27:24.818Z,101104.91
2022-08-03T10:29:59.083Z,101115.00
2022-08-03T10:32:35.322Z,101115.00
2022-08-03T10:35:19.075Z,101104.91
2022-08-03T10:37:57.302Z,101100.13
2022-08-03T10:43:22.981Z,101097.78
2022-08-03T10:45:53.066Z,101103.53
2022-08-03T10:48:21.765Z,101101.59
2022-08-03T10:50:51.678Z,101096.88
2022-08-03T10:53:37.519Z,101093.75
2022-08-03T10:56:28.626Z,101098.03
2022-08-03T10:59:12.441Z,101095.47
2022-08-03T11:01:58.868Z,101109.59
2022-08-03T11:04:29.960Z,101109.13
2022-08-03T11:07:22.890Z,101108.66
2022-08-03T11:09:53.539Z,101111.03
2022-08-03T11:12:29.851Z,101104.50
2022-08-03T11:15:03.000Z,101111.88
2022-08-03T11:17:33.781Z,101111.94
2022-08-03T11:20:15.457Z,101116.13
2022-08-03T11:22:54.388Z,101107.91
2022-08-03T11:25:53.969Z,101114.63
2022-08-03T11:28:30.524Z,101108.22
2022-08-03T11:31:49.352Z,101114.56
2022-08-03T11:34:19.702Z,101113.09
2022-08-03T11:37:27.288Z,101117.44
2022-08-03T11:39:58.408Z,101117.03
2022-08-03T11:42:47.013Z,101119.34
2022-08-03T11:45:16.236Z,101109.78
2022-08-03T11:47:50.737Z,101116.47
2022-08-03T11:50:21.672Z,101115.25
2022-08-03T11:52:51.322Z,101118.44
2022-08-03T11:55:22.055Z,101122.78
2022-08-03T11:59:01.385Z,101116.88
2022-08-03T12:00:40.604Z,101116.19
2022-08-03T12:03:13.586Z,101118.84
2022-08-03T12:05:51.667Z,101108.59
2022-08-03T12:08:32.916Z,101121.50
2022-08-03T12:11:05.737Z,101111.44
2022-08-03T12:14:43.925Z,101122.72
2022-08-03T12:16:31.716Z,101115.97
2022-08-03T12:19:02.366Z,101109.91
2022-08-03T12:21:33.179Z,101115.75
2022-08-03T12:24:04.633Z,101107.69
2022-08-03T12:26:56.790Z,101107.75
2022-08-03T12:29:27.642Z,101113.81
2022-08-03T12:31:56.435Z,101114.19
2022-08-03T12:34:24.898Z,101110.69
2022-08-03T12:37:01.017Z,101108.13
2022-08-03T12:39:31.421Z,101107.03
2022-08-03T12:41:59.981Z,101107.59
2022-08-03T12:44:32.673Z,101108.06
2022-08-03T12:47:01.996Z,101103.34
2022-08-03T12:49:30.617Z,101107.13
2022-08-03T12:52:05.489Z,101115.28
2022-08-03T12:54:36.145Z,101103.50
2022-08-03T12:57:06.746Z,101112.66
2022-08-03T12:59:40.431Z,101107.16
2022-08-03T13:02:17.695Z,101110.47
2022-08-03T13:04:47.426Z,101113.75
2022-08-03T13:07:19.555Z,101118.41
2022-08-03T13:09:50.457Z,101117.06
2022-08-03T13:12:21.282Z,101119.16
2022-08-03T13:14:52.260Z,101113.06
2022-08-03T13:17:20.923Z,101122.53
2022-08-03T13:19:51.376Z,101120.72
2022-08-03T13:22:22.788Z,101118.75
2022-08-03T13:24:53.133Z,101114.66
2022-08-03T13:28:01.091Z,101123.50
2022-08-03T13:30:12.004Z,101120.47
2022-08-03T13:32:40.900Z,101117.06
2022-08-03T13:35:10.559Z,101125.94
2022-08-03T13:37:40.277Z,101116.47
2022-08-03T13:40:11.644Z,101111.84
2022-08-03T13:42:39.932Z,101110.97
2022-08-03T13:45:10.493Z,101105.72
2022-08-03T13:47:38.854Z,101119.47
2022-08-03T13:50:07.865Z,101106.06
2022-08-03T13:52:37.493Z,101117.84
2022-08-03T13:55:09.383Z,101119.91
2022-08-03T13:58:04.731Z,101111.94
2022-08-03T14:00:28.950Z,101109.03
2022-08-03T14:03:15.365Z,101106.78
2022-08-03T14:05:44.421Z,101111.31
2022-08-03T14:08:13.621Z,101116.50
2022-08-03T14:10:45.540Z,101105.81
2022-08-03T14:13:18.021Z,101103.06
2022-08-03T14:15:50.219Z,101105.25
2022-08-03T14:18:28.925Z,101108.03
2022-08-03T14:21:06.376Z,101106.25
2022-08-03T14:23:35.576Z,101100.03
2022-08-03T14:26:05.580Z,101105.97
2022-08-03T14:28:33.952Z,101114.25
2022-08-03T14:31:04.598Z,101115.75
2022-08-03T14:33:36.993Z,101108.84
2022-08-03T14:36:06.339Z,101104.97
2022-08-03T14:38:34.836Z,101109.31
2022-08-03T14:41:04.487Z,101105.88
2022-08-03T14:43:33.772Z,101102.03
2022-08-03T14:46:02.693Z,101103.09
2022-08-03T14:50:33.284Z,101102.09
2022-08-03T14:51:19.363Z,101105.88
2022-08-03T14:53:47.664Z,101097.16
2022-08-03T14:56:17.379Z,101100.72
2022-08-03T14:58:45.766Z,101098.25
2022-08-03T15:02:02.307Z,101095.50
2022-08-03T15:04:02.326Z,101103.53
2022-08-03T15:06:30.653Z,101102.34
2022-08-03T15:09:23.695Z,101107.72
2022-08-03T15:11:48.683Z,101098.97
2022-08-03T15:14:16.992Z,101100.44
2022-08-03T15:16:45.275Z,101103.84
2022-08-03T15:20:00.466Z,101104.09
2022-08-03T15:22:01.807Z,101108.41
2022-08-03T15:24:30.491Z,101102.88
2022-08-03T15:27:00.309Z,101107.31
2022-08-03T15:30:07.398Z,101104.44
2022-08-03T15:32:16.922Z,101105.91
2022-08-03T15:34:50.054Z,101098.28
2022-08-03T15:37:20.690Z,101104.28
2022-08-03T15:39:59.689Z,101103.03
2022-08-03T15:42:31.204Z,101106.06
2022-08-03T15:44:59.556Z,101100.50
2022-08-03T15:47:28.079Z,101102.00
2022-08-03T15:49:56.600Z,101101.59
2022-08-03T15:52:24.997Z,101100.13
2022-08-03T15:54:53.362Z,101095.81
2022-08-03T15:57:22.492Z,101096.88
2022-08-03T15:59:52.998Z,101100.09
2022-08-03T16:02:21.498Z,101095.00
2022-08-03T16:04:49.891Z,101100.53
2022-08-03T16:07:38.210Z,101096.94
2022-08-03T16:10:07.667Z,101103.13
2022-08-03T16:12:35.981Z,101108.47
2022-08-03T16:15:06.715Z,101098.22
2022-08-03T16:17:35.031Z,101104.00
2022-08-03T16:20:07.487Z,101102.72
2022-08-03T16:22:44.695Z,101103.31
2022-08-03T16:25:16.097Z,101099.66
2022-08-03T16:28:07.303Z,101102.66
2022-08-03T16:30:35.779Z,101100.97
2022-08-03T16:33:04.488Z,101101.38
2022-08-03T16:35:32.908Z,101105.03
2022-08-03T16:38:04.390Z,101096.88
2022-08-03T16:40:35.054Z,101093.06
2022-08-03T16:43:18.237Z,101094.13
2022-08-03T16:45:48.622Z,101088.56
2022-08-03T16:48:17.393Z,101096.69
2022-08-03T16:50:45.980Z,101090.06
2022-08-03T16:53:16.580Z,101092.19
2022-08-03T16:55:52.333Z,101085.13
2022-08-03T16:58:42.664Z,101096.91
2022-08-03T17:01:22.530Z,101090.69
2022-08-03T17:04:01.458Z,101090.69
2022-08-03T17:06:34.408Z,101097.97
2022-08-03T17:09:04.358Z,101106.94
2022-08-03T17:11:44.047Z,101096.66
2022-08-03T17:14:16.700Z,101106.28
2022-08-03T17:16:52.119Z,101098.38
2022-08-03T17:19:24.885Z,101106.47
2022-08-03T17:22:03.944Z,101104.13
2022-08-03T17:24:35.289Z,101107.53
2022-08-03T17:28:51.302Z,101111.16
2022-08-03T17:30:05.456Z,101115.19
2022-08-03T17:32:42.885Z,101118.31
2022-08-03T17:35:21.286Z,101107.81
2022-08-03T17:37:58.597Z,101117.41
2022-08-03T17:40:32.441Z,101114.78
2022-08-03T17:44:13.736Z,101122.88
2022-08-03T17:45:52.191Z,101111.94
2022-08-03T17:48:25.067Z,101119.56
2022-08-03T17:51:00.138Z,101126.13
2022-08-03T17:53:33.498Z,101121.38
2022-08-03T17:56:44.464Z,101117.72
2022-08-03T17:59:15.479Z,101119.59
2022-08-03T18:02:21.081Z,101120.00
2022-08-03T18:05:16.708Z,101132.94
2022-08-03T18:07:49.555Z,101136.34
2022-08-03T18:10:28.342Z,101140.38
2022-08-03T18:13:10.509Z,101142.00
2022-08-03T18:15:47.235Z,101145.81
2022-08-03T18:18:29.263Z,101143.63
2022-08-03T18:21:09.342Z,101145.66
2022-08-03T18:23:50.325Z,101154.75
2022-08-03T18:26:20.111Z,101155.97
2022-08-03T18:28:50.639Z,101161.63
2022-08-03T18:31:59.813Z,101157.06
2022-08-03T18:34:16.659Z,101153.75
2022-08-03T18:36:50.584Z,101154.75
2022-08-03T18:39:20.176Z,101162.97
2022-08-03T18:41:49.015Z,101158.38
2022-08-03T18:44:52.570Z,101162.13
2022-08-03T18:47:50.666Z,101155.56
2022-08-03T18:50:25.731Z,101161.59
2022-08-03T18:53:16.151Z,101159.31
2022-08-03T18:56:02.129Z,101167.72
2022-08-03T18:58:38.921Z,101171.44
2022-08-03T19:01:59.581Z,101172.34
2022-08-03T19:04:12.484Z,101175.22
2022-08-03T19:06:45.466Z,101179.09
2022-08-03T19:09:28.393Z,101181.28
2022-08-03T19:12:12.593Z,101192.63
2022-08-03T19:14:57.503Z,101190.63
2022-08-03T19:17:29.695Z,101184.16
2022-08-03T19:19:59.683Z,101187.13
2022-08-03T19:22:30.116Z,101192.72
2022-08-03T19:25:02.577Z,101199.38
2022-08-03T19:27:32.799Z,101196.28
2022-08-03T19:30:05.830Z,101195.50
2022-08-03T19:32:41.219Z,101189.16
2022-08-03T19:35:19.088Z,101186.63
2022-08-03T19:38:05.808Z,101190.31
2022-08-03T19:40:40.236Z,101195.84
2022-08-03T19:43:21.952Z,101197.75
2022-08-03T19:46:06.103Z,101193.16
2022-08-03T19:48:36.846Z,101196.81
2022-08-03T19:51:12.331Z,101194.78
2022-08-03T19:53:45.217Z,101197.38
2022-08-03T19:56:16.599Z,101200.16
2022-08-03T19:58:45.237Z,101200.19
2022-08-03T20:01:23.205Z,101204.00
2022-08-03T20:03:52.996Z,101213.28
2022-08-03T20:06:24.438Z,101215.41
2022-08-03T20:08:55.207Z,101214.34
2022-08-03T20:11:28.668Z,101212.47
2022-08-03T20:13:59.394Z,101209.38
2022-08-03T20:16:27.955Z,101204.41
2022-08-03T20:18:56.291Z,101204.41
2022-08-03T20:21:28.635Z,101206.81
2022-08-03T20:24:24.624Z,101209.38
2022-08-03T20:26:57.793Z,101206.63
2022-08-03T20:30:05.330Z,101214.69
2022-08-03T20:32:24.832Z,101224.63
2022-08-03T20:34:53.467Z,101220.69
2022-08-03T20:37:21.777Z,101225.84
2022-08-03T20:39:50.217Z,101231.16
2022-08-03T20:42:21.454Z,101228.19
2022-08-03T20:45:05.593Z,101230.09
2022-08-03T20:47:36.622Z,101227.31
2022-08-03T20:50:22.055Z,101219.91
2022-08-03T20:52:51.207Z,101226.22
2022-08-03T20:55:20.300Z,101227.91
2022-08-03T20:58:10.533Z,101225.97
2022-08-03T21:00:39.102Z,101221.97
2022-08-03T21:03:09.032Z,101225.41
2022-08-03T21:05:48.413Z,101237.22
2022-08-03T21:08:23.526Z,101231.53
2022-08-03T21:10:53.725Z,101232.16
2022-08-03T21:13:31.148Z,101230.06
2022-08-03T21:16:12.959Z,101227.97
2022-08-03T21:18:49.357Z,101225.03
2022-08-03T21:21:21.004Z,101233.72
2022-08-03T21:23:52.548Z,101240.03
2022-08-03T21:26:23.262Z,101241.53
2022-08-03T21:28:55.144Z,101233.63
2022-08-03T21:31:26.497Z,101234.06
2022-08-03T21:33:58.264Z,101234.53
2022-08-03T21:36:29.477Z,101229.53
2022-08-03T21:38:58.667Z,101232.44
2022-08-03T21:41:29.772Z,101222.09
2022-08-03T21:43:59.934Z,101232.53
2022-08-03T21:46:31.703Z,101227.53
2022-08-03T21:50:04.558Z,101224.94
2022-08-03T21:51:55.102Z,101222.66
2022-08-03T21:54:31.372Z,101220.25
2022-08-03T21:57:04.139Z,101221.25
2022-08-03T21:59:38.769Z,101217.97
2022-08-03T22:02:15.635Z,101217.41
2022-08-03T22:04:55.481Z,101228.53
2022-08-03T22:07:25.495Z,101233.50
2022-08-03T22:09:55.313Z,101227.47
2022-08-03T22:12:25.385Z,101216.66
2022-08-03T22:15:00.171Z,101221.44
2022-08-03T22:17:55.959Z,101216.94
2022-08-03T22:20:19.254Z,101216.41
2022-08-03T22:22:55.278Z,101217.75
2022-08-03T22:25:29.969Z,101218.06
2022-08-03T22:28:00.760Z,101217.50
2022-08-03T22:30:31.650Z,101211.31
2022-08-03T22:33:00.779Z,101217.81
2022-08-03T22:35:32.313Z,101220.72
2022-08-03T22:38:17.418Z,101218.13
2022-08-03T22:40:48.059Z,101214.94
2022-08-03T22:43:16.500Z,101223.66
2022-08-03T22:46:09.921Z,101222.25
2022-08-03T22:48:40.926Z,101224.41
2022-08-03T22:51:10.659Z,101226.59
2022-08-03T22:53:40.313Z,101226.06
2022-08-03T22:56:08.810Z,101228.25
2022-08-03T22:58:37.145Z,101225.94
2022-08-03T23:01:09.942Z,101230.03
2022-08-03T23:03:59.205Z,101221.25
2022-08-03T23:06:36.009Z,101228.88
2022-08-03T23:09:08.158Z,101232.97
2022-08-03T23:11:40.872Z,101224.34
2022-08-03T23:14:16.047Z,101221.88
2022-08-03T23:16:48.181Z,101228.53
2022-08-03T23:19:25.712Z,101222.50
2022-08-03T23:22:02.381Z,101227.44
2022-08-03T23:24:34.847Z,101225.13
2022-08-03T23:27:05.766Z,101225.44
2022-08-03T23:29:36.540Z,101229.34
2022-08-03T23:32:07.946Z,101227.94
2022-08-03T23:34:56.865Z,101232.81
2022-08-03T23:37:27.006Z,101230.34
2022-08-03T23:39:58.086Z,101220.56
2022-08-03T23:42:27.297Z,101219.00
2022-08-03T23:44:59.431Z,101217.56
2022-08-03T23:47:46.292Z,101220.59
2022-08-03T23:50:16.126Z,101223.78
2022-08-03T23:52:57.425Z,101218.75
2022-08-03T23:55:44.996Z,101210.84
2022-08-03T23:58:27.429Z,101226.53
